Weather reports worldwide

Advertisment
Rodkallen, Sweden (2188): temperature & dewpoint: 12.09.2019 05:00:00 - 18.09.2019 05:00:00 (CEST)Rodkallen, Sweden (2188): wind speed & gusts: 12.09.2019 05:00:00 - 18.09.2019 05:00:00 (CEST)Rodkallen, Sweden (2188): wind direction: 12.09.2019 05:00:00 - 18.09.2019 05:00:00 (CEST)Rodkallen, Sweden (2188): visibility: 12.09.2019 05:00:00 - 18.09.2019 05:00:00 (CEST)Rodkallen, Sweden (2188): precipitation: 12.09.2019 05:00:00 - 18.09.2019 05:00:00 (CEST)
Date & Time tt [°C] td [°C] ff [km/h] ff [kn] fx [km/h] fx [kn] dd vv [km] rr [mm]
18.09.2019 05:00:00 7,4 3,3 17 9 26 14 N 50 0,0
18.09.2019 04:00:00 7,9 3,4 18 10 22 12 N 50 0,0
18.09.2019 03:00:00 7,8 3,3 18 10 26 14 N 50 0,0
18.09.2019 02:00:00 7,9 3,2 23 13 29 15 N 50 0,0
18.09.2019 01:00:00 8,3 3,1 22 12 30 16 N 50 0,0
18.09.2019 00:00:00 8,6 2,8 24 13 32 17 N 50 0,0
17.09.2019 23:00:00 8,7 2,7 26 14 34 19 N 50 0,0
17.09.2019 22:00:00 8,8 2,6 26 14 35 19 N 50 0,0
17.09.2019 21:00:00 9,1 3,1 29 16 39 21 NNE 50 0,0
17.09.2019 20:00:00 9,2 4,6 26 14 42 23 N 50 0,0
17.09.2019 19:00:00 9,6 5,2 35 19 44 24 NNE 50 2,1
17.09.2019 18:00:00 9,0 6,6 23 12 39 21 N 28 0,1
17.09.2019 17:00:00 9,2 6,6 19 10 31 17 NNW 49 0,4
17.09.2019 16:00:00 8,8 6,9 25 13 35 19 NNE 12 0,2
17.09.2019 15:00:00 9,0 7,1 20 11 35 19 NNW 15 0,4
17.09.2019 14:00:00 9,3 6,9 22 12 32 17 N 21 0,1
17.09.2019 13:00:00 8,9 6,7 21 12 33 18 N 43 0,1
17.09.2019 12:00:00 8,0 6,5 24 13 35 19 NNW 47 0,0
17.09.2019 11:00:00 7,8 6,3 22 12 35 19 NNW 33 0,1
17.09.2019 10:00:00 8,3 5,8 22 12 29 16 N 41 0,0
17.09.2019 09:00:00 8,1 5,7 22 12 30 16 N 50 0,0
17.09.2019 08:00:00 8,1 5,7 23 12 33 18 N 50 0,0
17.09.2019 07:00:00 8,0 5,6 26 14 35 19 N 50 0,0
17.09.2019 06:00:00 8,2 6,0 26 14 33 18 N 50 0,0
17.09.2019 05:00:00 8,5 6,1 20 11 27 15 N 50 0,0
17.09.2019 04:00:00 8,4 6,0 20 11 29 15 N 50 0,0
17.09.2019 03:00:00 8,4 6,4 21 11 30 16 N 50 0,0
17.09.2019 02:00:00 7,9 6,4 19 11 29 15 NNW 50 0,0
17.09.2019 01:00:00 7,8 6,4 17 9 29 16 NNW 50 0,2
17.09.2019 00:00:00 7,7 6,2 17 9 31 17 NNW 13 0,1
16.09.2019 23:00:00 7,8 6,4 20 11 30 16 NNW 26 0,0
16.09.2019 22:00:00 8,2 5,7 20 11 31 17 N 48 0,0
16.09.2019 21:00:00 8,6 5,3 24 13 35 19 N 50 0,0
16.09.2019 20:00:00 9,0 4,2 23 13 37 20 NNW 50 0,0
16.09.2019 19:00:00 9,5 3,5 22 12 37 20 NNW 50 0,0
16.09.2019 18:00:00 10,0 2,8 24 13 37 20 NNW 50 0,0
16.09.2019 17:00:00 10,2 2,3 23 12 37 20 NNW 50 0,0
16.09.2019 16:00:00 10,3 2,2 21 11 36 19 NNW 50 0,0
16.09.2019 15:00:00 10,1 2,0 20 11 37 20 NNW 50 0,0
16.09.2019 14:00:00 10,6 1,9 24 13 35 19 NW 39 0,0
16.09.2019 13:00:00 9,8 1,4 25 14 45 25 NW 44 0,0
16.09.2019 12:00:00 9,1 2,2 26 14 43 23 NNW 40 0,0
16.09.2019 11:00:00 8,0 2,5 26 14 43 23 NNW 37 0,0
16.09.2019 10:00:00 7,2 3,1 23 12 37 20 NNW 45 0,0
16.09.2019 09:00:00 6,6 3,6 29 15 41 22 NNW 43 0,0
16.09.2019 08:00:00 6,3 3,8 26 14 41 22 NNW 42 0,0
16.09.2019 07:00:00 6,8 3,8 34 18 43 23 N 47 0,0
16.09.2019 06:00:00 6,7 3,8 31 17 45 24 N 50 0,0
16.09.2019 05:00:00 7,3 3,9 37 20 44 24 NNE 50 0,0
16.09.2019 04:00:00 7,5 4,3 37 20 50 27 NNE 50 0,0
16.09.2019 03:00:00 8,3 4,9 36 19 51 28 NNE 50 0,0
16.09.2019 02:00:00 9,2 5,2 41 22 52 28 NNE 50 0,0
16.09.2019 01:00:00 9,5 5,5 41 22 55 30 NNE 50 0,0
16.09.2019 00:00:00 10,3 5,9 41 22 53 29 NE 50 0,0
15.09.2019 23:00:00 10,5 5,9 40 22 56 30 NE 32 0,5
15.09.2019 22:00:00 10,6 5,6 41 22 61 33 NE 16 0,1
15.09.2019 21:00:00 10,9 5,4 47 25 59 32 ENE 23 0,5
15.09.2019 20:00:00 11,0 5,9 43 23 57 31 ENE 50 0,8
15.09.2019 19:00:00 10,1 6,8 40 22 53 29 NE 10 1,1
15.09.2019 18:00:00 10,6 6,5 40 21 58 31 E 13 1,1
15.09.2019 17:00:00 10,1 6,4 35 19 56 31 E 21 0,1
15.09.2019 16:00:00 9,6 6,0 33 18 54 29 E 9 1,7
15.09.2019 15:00:00 10,3 5,9 37 20 59 32 E 18 0,8
15.09.2019 14:00:00 10,4 5,4 36 19 53 28 E 19 0,0
15.09.2019 13:00:00 10,0 5,2 40 22 55 30 ESE 25 0,2
15.09.2019 12:00:00 10,6 5,6 41 22 52 28 ESE 50 0,5
15.09.2019 11:00:00 10,2 6,5 36 19 50 27 ESE 13 0,2
15.09.2019 10:00:00 9,6 5,4 35 19 66 36 ESE 7 2,3
15.09.2019 09:00:00 11,1 6,0 33 18 43 23 SSE 50 0,1
15.09.2019 08:00:00 9,2 6,5 27 15 47 26 S 6 1,5
15.09.2019 07:00:00 9,8 5,6 24 13 43 23 SW 48 0,1
15.09.2019 06:00:00 11,7 5,3 27 14 34 18 SSE 50 0,0
15.09.2019 05:00:00 11,3 5,4 23 13 34 18 S 50 0,0
15.09.2019 04:00:00 11,2 5,9 27 15 33 18 S 50 0,0
15.09.2019 03:00:00 11,1 6,4 20 11 24 13 S 50 0,0
15.09.2019 02:00:00 10,8 5,8 14 8 22 12 S 50 0,0
15.09.2019 01:00:00 11,2 5,7 17 9 22 12 SSW 50 0,0
15.09.2019 00:00:00 11,1 5,8 19 10 22 12 SSW 50 0,0
14.09.2019 23:00:00 11,0 6,1 18 10 22 12 SW 50 0,0
14.09.2019 22:00:00 11,4 5,3 13 7 20 11 SW 50 0,0
14.09.2019 21:00:00 11,8 4,5 19 10 34 18 WSW 50 0,0
14.09.2019 20:00:00 12,3 4,8 22 12 27 15 SSW 50 0,0
14.09.2019 19:00:00 12,1 4,8 16 9 19 11 SSW 50 0,0
14.09.2019 18:00:00 12,2 4,4 14 8 20 11 SSW 50 0,0
14.09.2019 17:00:00 12,2 5,4 16 9 22 12 SSW 50 0,0
14.09.2019 16:00:00 11,8 5,2 17 9 24 13 SSW 48 0,0
14.09.2019 15:00:00 11,8 4,5 20 11 24 13 SSW 41 0,0
14.09.2019 14:00:00 11,0 4,0 16 9 22 12 SSW 45 0,0
14.09.2019 13:00:00 11,3 4,3 12 7 17 9 SSW 42 0,0
14.09.2019 12:00:00 10,8 3,6 6 3 9 5 SW 42 0,0
14.09.2019 11:00:00 10,7 3,5 6 4 13 7 WNW 40 0,0
14.09.2019 10:00:00 10,0 4,6 12 6 18 10 WNW 44 0,0
14.09.2019 09:00:00 9,2 4,8 16 9 21 12 WNW 44 0,0
14.09.2019 08:00:00 8,8 3,4 14 7 28 15 NW 50 0,0
14.09.2019 07:00:00 8,2 3,5 19 10 35 19 NW 50 0,0
14.09.2019 06:00:00 8,1 3,7 25 14 33 18 WNW 50 0,0
14.09.2019 05:00:00 8,7 3,5 22 12 31 17 NW 50 0,0
14.09.2019 04:00:00 9,0 3,6 22 12 36 19 NW 50 0,0
14.09.2019 03:00:00 8,9 4,1 23 12 37 20 NW 50 0,0
14.09.2019 02:00:00 9,1 3,9 25 13 36 19 NW 40 0,0
14.09.2019 01:00:00 9,2 4,4 24 13 39 21 NW 50 0,0
14.09.2019 00:00:00 9,6 4,4 30 16 43 23 NW 50 0,0
13.09.2019 23:00:00 10,1 5,3 33 18 46 25 WNW 50 0,0
13.09.2019 22:00:00 10,7 6,3 36 20 46 25 WNW 50 0,0
13.09.2019 21:00:00 10,9 7,0 30 16 41 22 WNW 50 0,0
13.09.2019 20:00:00 11,1 6,8 30 16 41 22 W 50 0,5
13.09.2019 19:00:00 10,3 6,4 31 17 45 24 WNW 44 0,0
13.09.2019 18:00:00 10,1 6,3 13 7 32 17 NW 50 0,1
13.09.2019 17:00:00 9,8 6,0 24 13 52 28 NW 50 0,7
13.09.2019 16:00:00 10,6 8,2 28 15 37 20 WNW 18 0,1
13.09.2019 15:00:00 10,3 6,8 24 13 46 25 NW 16 0,1
13.09.2019 14:00:00 12,7 6,3 25 14 35 19 WSW 50 0,0
13.09.2019 13:00:00 12,5 6,8 26 14 32 17 SW 46 0,0
13.09.2019 12:00:00 12,4 4,9 22 12 38 21 WSW 35 0,0
13.09.2019 11:00:00 12,1 5,5 32 17 41 22 W 46 0,0
13.09.2019 10:00:00 11,7 5,6 31 17 40 21 WSW 46 0,0
13.09.2019 09:00:00 11,2 5,5 32 18 42 23 W 45 0,0
13.09.2019 08:00:00 11,0 5,7 32 18 46 25 W 44 0,0
13.09.2019 07:00:00 11,1 5,8 36 20 44 24 W 40 0,0
13.09.2019 06:00:00 11,5 6,6 34 19 41 22 W 50 0,0
13.09.2019 05:00:00 11,8 6,7 34 18 40 22 W 50 0,0
13.09.2019 04:00:00 12,4 7,5 31 17 36 19 WSW 50 0,0
13.09.2019 03:00:00 12,4 8,7 27 15 39 21 WSW 50 0,0
13.09.2019 02:00:00 12,7 8,6 32 17 37 20 SW 50 0,0
13.09.2019 01:00:00 13,0 9,3 27 15 34 18 SW 50 0,0
13.09.2019 00:00:00 13,2 9,1 27 15 36 19 SW 50 0,0
12.09.2019 23:00:00 13,4 10,0 31 17 36 19 SW 50 0,0
12.09.2019 22:00:00 13,8 10,0 29 15 35 19 SW 50 0,0
12.09.2019 21:00:00 14,2 10,2 32 17 37 20 SW 50 0,0
12.09.2019 20:00:00 14,4 10,6 19 11 32 18 SW 50 0,0
12.09.2019 19:00:00 14,8 10,4 24 13 31 17 WSW 50 0,0
12.09.2019 18:00:00 15,2 10,4 22 12 27 14 WSW 42 0,0
12.09.2019 17:00:00 15,2 11,0 20 11 36 19 SW 45 0,0
12.09.2019 16:00:00 15,0 11,6 30 16 36 19 SSW 43 0,0
12.09.2019 15:00:00 14,9 11,9 28 15 32 17 SSW 36 0,0
12.09.2019 14:00:00 15,1 12,0 19 10 27 14 SW 39 0,0
12.09.2019 13:00:00 14,4 12,5 24 13 37 20 SSW 32 0,0
12.09.2019 12:00:00 14,0 12,6 30 16 37 20 S 24 0,0
12.09.2019 11:00:00 13,7 12,7 29 15 38 21 S 22 0,0
12.09.2019 10:00:00 13,5 12,6 33 18 39 21 S 20 1,4
12.09.2019 09:00:00 13,3 12,5 27 14 39 21 S 7 1,3
12.09.2019 08:00:00 13,5 12,6 34 19 45 24 S 14 0,0
12.09.2019 07:00:00 13,8 12,9 36 19 45 24 S 19 0,0
12.09.2019 06:00:00 14,0 13,4 30 16 39 21 S 17 0,8
12.09.2019 05:00:00 13,9 13,4 20 11 34 18 SSE 25 0,0

tt = temperature
td = dewpoint
ff = wind speed
fx = gusts
dd = wind direction
vv = visibility
rr = precipitation

Next stations